createdAt,value
2022-11-20T00:01:22.902Z,100305.94
2022-11-20T00:03:51.342Z,100307.88
2022-11-20T00:06:19.533Z,100301.94
2022-11-20T00:08:47.023Z,100299.34
2022-11-20T00:11:21.475Z,100294.00
2022-11-20T00:13:50.043Z,100296.50
2022-11-20T00:16:19.813Z,100290.19
2022-11-20T00:18:46.882Z,100294.34
2022-11-20T00:21:16.278Z,100288.09
2022-11-20T00:23:44.011Z,100293.09
2022-11-20T00:26:13.859Z,100286.75
2022-11-20T00:28:41.576Z,100284.00
2022-11-20T00:31:13.849Z,100290.69
2022-11-20T00:33:41.153Z,100281.75
2022-11-20T00:36:10.279Z,100287.69
2022-11-20T00:38:36.985Z,100287.53
2022-11-20T00:41:09.060Z,100283.88
2022-11-20T00:43:36.684Z,100288.00
2022-11-20T00:46:04.886Z,100280.31
2022-11-20T00:48:32.083Z,100286.50
2022-11-20T00:50:59.023Z,100289.88
2022-11-20T00:53:26.601Z,100281.13
2022-11-20T00:56:00.851Z,100282.81
2022-11-20T00:58:31.622Z,100281.03
2022-11-20T01:01:12.000Z,100280.97
2022-11-20T01:03:41.059Z,100280.97
2022-11-20T01:06:12.513Z,100282.75
2022-11-20T01:08:39.341Z,100287.13
2022-11-20T01:11:09.958Z,100279.50
2022-11-20T01:13:38.101Z,100272.66
2022-11-20T01:16:05.859Z,100275.34
2022-11-20T01:18:32.897Z,100271.94
2022-11-20T01:21:08.550Z,100272.81
2022-11-20T01:23:37.424Z,100279.16
2022-11-20T01:26:10.624Z,100274.03
2022-11-20T01:28:37.371Z,100275.09
2022-11-20T01:31:14.373Z,100273.59
2022-11-20T01:33:42.148Z,100269.53
2022-11-20T01:36:10.561Z,100254.25
2022-11-20T01:38:37.219Z,100251.84
2022-11-20T01:41:04.699Z,100247.03
2022-11-20T01:43:32.225Z,100259.38
2022-11-20T01:46:19.816Z,100245.72
2022-11-20T01:48:49.258Z,100243.41
2022-11-20T01:51:40.156Z,100249.75
2022-11-20T01:54:13.340Z,100241.25
2022-11-20T01:56:44.801Z,100243.19
2022-11-20T01:59:16.872Z,100234.72
2022-11-20T02:01:43.486Z,100232.41
2022-11-20T02:04:11.615Z,100235.28
2022-11-20T02:06:51.006Z,100235.44
2022-11-20T02:09:17.750Z,100232.00
2022-11-20T02:11:44.562Z,100225.03
2022-11-20T02:14:11.702Z,100232.84
2022-11-20T02:16:45.110Z,100225.91
2022-11-20T02:19:38.272Z,100223.25
2022-11-20T02:22:17.325Z,100222.56
2022-11-20T02:24:46.180Z,100227.03
2022-11-20T02:27:15.200Z,100216.69
2022-11-20T02:29:51.612Z,100218.59
2022-11-20T02:32:29.474Z,100227.38
2022-11-20T02:34:56.466Z,100219.50
2022-11-20T02:37:24.117Z,100219.56
2022-11-20T02:39:52.833Z,100218.59
2022-11-20T02:42:20.033Z,100224.63
2022-11-20T02:44:46.551Z,100220.28
2022-11-20T02:47:13.265Z,100213.19
2022-11-20T02:49:39.772Z,100213.06
2022-11-20T02:52:06.343Z,100213.06
2022-11-20T02:54:33.185Z,100212.09
2022-11-20T02:56:59.775Z,100209.44
2022-11-20T02:59:26.615Z,100204.22
2022-11-20T03:01:53.259Z,100200.81
2022-11-20T03:04:19.875Z,100201.63
2022-11-20T03:06:46.587Z,100209.28
2022-11-20T03:09:13.644Z,100201.41
2022-11-20T03:11:40.275Z,100197.09
2022-11-20T03:14:07.020Z,100202.38
2022-11-20T03:16:33.922Z,100202.44
2022-11-20T03:19:01.306Z,100199.16
2022-11-20T03:21:28.046Z,100200.13
2022-11-20T03:23:55.973Z,100195.00
2022-11-20T03:26:25.090Z,100193.13
2022-11-20T03:28:54.367Z,100196.63
2022-11-20T03:31:24.091Z,100192.16
2022-11-20T03:33:51.108Z,100203.41
2022-11-20T03:36:19.197Z,100197.22
2022-11-20T03:38:46.230Z,100189.28
2022-11-20T03:41:18.093Z,100190.78
2022-11-20T03:43:58.898Z,100198.31
2022-11-20T03:46:26.202Z,100190.13
2022-11-20T03:48:53.025Z,100181.09
2022-11-20T03:51:22.241Z,100196.31
2022-11-20T03:53:51.230Z,100194.09
2022-11-20T03:56:20.579Z,100191.81
2022-11-20T03:58:47.204Z,100192.22
2022-11-20T04:01:19.675Z,100181.38
2022-11-20T04:03:46.812Z,100179.47
2022-11-20T04:06:16.510Z,100180.91
2022-11-20T04:08:44.118Z,100179.00
2022-11-20T04:11:11.564Z,100175.44
2022-11-20T04:13:38.497Z,100172.00
2022-11-20T04:16:06.428Z,100164.97
2022-11-20T04:18:33.407Z,100170.25
2022-11-20T04:21:00.500Z,100169.41
2022-11-20T04:23:28.926Z,100160.00
2022-11-20T04:25:55.895Z,100168.69
2022-11-20T04:28:25.085Z,100156.50
2022-11-20T04:30:51.591Z,100153.19
2022-11-20T04:33:18.140Z,100156.75
2022-11-20T04:35:48.294Z,100161.94
2022-11-20T04:38:15.076Z,100157.53
2022-11-20T04:40:41.600Z,100150.66
2022-11-20T04:43:08.093Z,100150.66
2022-11-20T04:45:35.354Z,100157.72
2022-11-20T04:48:02.069Z,100152.59
2022-11-20T04:50:28.684Z,100154.53
2022-11-20T04:52:55.228Z,100159.13
2022-11-20T04:55:21.752Z,100154.13
2022-11-20T04:57:51.820Z,100160.44
2022-11-20T05:00:18.536Z,100147.63
2022-11-20T05:02:45.411Z,100144.31
2022-11-20T05:05:11.908Z,100144.56
2022-11-20T05:07:38.528Z,100141.28
2022-11-20T05:10:05.584Z,100155.41
2022-11-20T05:12:32.523Z,100146.94
2022-11-20T05:14:59.351Z,100150.50
2022-11-20T05:17:25.884Z,100135.94
2022-11-20T05:19:53.312Z,100138.72
2022-11-20T05:22:20.071Z,100137.16
2022-11-20T05:24:46.712Z,100144.34
2022-11-20T05:27:13.414Z,100139.28
2022-11-20T05:29:40.197Z,100135.03
2022-11-20T05:32:08.262Z,100133.47
2022-11-20T05:39:13.347Z,100115.78
2022-11-20T05:41:39.290Z,100124.53
2022-11-20T05:44:05.178Z,100128.69
2022-11-20T05:46:31.052Z,100146.84
2022-11-20T05:48:58.192Z,100144.03
2022-11-20T05:51:25.501Z,100145.63
2022-11-20T05:53:51.426Z,100129.03
2022-11-20T05:56:20.199Z,100142.13
2022-11-20T06:03:55.512Z,100119.44
2022-11-20T06:06:21.471Z,100123.06
2022-11-20T06:08:47.821Z,100124.81
2022-11-20T06:11:15.105Z,100123.16
2022-11-20T06:13:42.690Z,100120.69
2022-11-20T06:16:09.957Z,100117.44
2022-11-20T06:18:35.997Z,100123.59
2022-11-20T06:26:25.707Z,100121.25
2022-11-20T06:28:52.295Z,100126.44
2022-11-20T06:31:21.547Z,100110.72
2022-11-20T06:33:48.424Z,100104.53
2022-11-20T06:36:16.289Z,100109.88
2022-11-20T06:38:42.600Z,100110.72
2022-11-20T06:41:18.220Z,100108.16
2022-11-20T06:43:44.988Z,100099.63
2022-11-20T06:46:13.443Z,100103.03
2022-11-20T06:48:41.082Z,100113.59
2022-11-20T06:51:09.134Z,100112.56
2022-11-20T06:53:36.813Z,100107.28
2022-11-20T06:56:03.975Z,100104.75
2022-11-20T06:58:32.714Z,100100.50
2022-11-20T07:01:00.748Z,100097.22
2022-11-20T07:03:27.434Z,100101.75
2022-11-20T07:05:57.732Z,100099.19
2022-11-20T07:08:25.318Z,100103.72
2022-11-20T07:10:52.060Z,100097.63
2022-11-20T07:13:18.633Z,100092.22
2022-11-20T07:15:45.260Z,100097.28
2022-11-20T07:18:12.245Z,100090.25
2022-11-20T07:20:38.973Z,100091.09
2022-11-20T07:23:05.680Z,100097.28
2022-11-20T07:25:32.414Z,100097.50
2022-11-20T07:28:00.069Z,100096.88
2022-11-20T07:30:27.772Z,100103.09
2022-11-20T07:32:56.471Z,100106.59
2022-11-20T07:35:24.315Z,100099.59
2022-11-20T07:37:51.117Z,100107.47
2022-11-20T07:40:18.642Z,100098.16
2022-11-20T07:42:50.164Z,100100.00
2022-11-20T07:45:17.802Z,100094.81
2022-11-20T07:47:44.686Z,100095.03
2022-11-20T07:50:12.254Z,100098.75
2022-11-20T07:52:39.117Z,100097.75
2022-11-20T07:55:06.334Z,100101.94
2022-11-20T07:57:32.976Z,100101.16
2022-11-20T07:59:59.921Z,100098.66
2022-11-20T08:02:26.584Z,100097.81
2022-11-20T08:04:53.173Z,100097.81
2022-11-20T08:07:19.849Z,100096.03
2022-11-20T08:09:46.501Z,100098.66
2022-11-20T08:12:39.781Z,100092.66
2022-11-20T08:15:12.636Z,100097.31
2022-11-20T08:17:39.897Z,100097.31
2022-11-20T08:20:07.099Z,100105.06
2022-11-20T08:22:33.743Z,100105.88
2022-11-20T08:25:00.376Z,100103.41
2022-11-20T08:27:27.342Z,100100.13
2022-11-20T08:29:54.021Z,100101.19
2022-11-20T08:32:20.630Z,100106.53
2022-11-20T08:34:47.488Z,100101.47
2022-11-20T08:37:14.071Z,100101.59
2022-11-20T08:39:40.690Z,100103.50
2022-11-20T08:42:10.186Z,100102.94
2022-11-20T08:44:36.865Z,100103.88
2022-11-20T08:47:03.495Z,100104.84
2022-11-20T08:49:30.244Z,100098.78
2022-11-20T08:51:58.308Z,100099.06
2022-11-20T08:54:25.484Z,100093.91
2022-11-20T08:56:52.594Z,100092.31
2022-11-20T08:59:37.275Z,100097.63
2022-11-20T09:02:06.983Z,100086.19
2022-11-20T09:04:33.865Z,100090.53
2022-11-20T09:07:01.695Z,100088.88
2022-11-20T09:09:30.095Z,100087.22
2022-11-20T09:11:57.154Z,100083.91
2022-11-20T09:14:25.876Z,100083.38
2022-11-20T09:16:52.856Z,100082.75
2022-11-20T09:19:40.615Z,100091.56
2022-11-20T09:22:06.824Z,100077.78
2022-11-20T09:24:33.885Z,100078.75
2022-11-20T09:27:03.427Z,100086.56
2022-11-20T09:29:30.749Z,100072.81
2022-11-20T09:31:57.723Z,100078.16
2022-11-20T09:34:24.967Z,100082.63
2022-11-20T09:36:51.903Z,100085.38
2022-11-20T09:39:19.241Z,100080.28
2022-11-20T09:41:55.632Z,100086.50
2022-11-20T09:44:39.794Z,100080.78
2022-11-20T09:47:13.849Z,100067.03
2022-11-20T09:49:55.211Z,100064.53
2022-11-20T09:52:40.524Z,100072.47
2022-11-20T09:55:11.563Z,100071.84
2022-11-20T09:57:42.615Z,100070.66
2022-11-20T10:00:14.642Z,100074.63
2022-11-20T10:02:53.163Z,100060.06
2022-11-20T10:05:26.033Z,100051.47
2022-11-20T10:08:01.174Z,100057.75
2022-11-20T10:10:30.828Z,100056.75
2022-11-20T10:13:17.280Z,100069.75
2022-11-20T10:16:03.953Z,100069.78
2022-11-20T10:18:57.918Z,100060.34
2022-11-20T10:21:42.212Z,100056.06
2022-11-20T10:24:18.065Z,100063.72
2022-11-20T10:27:06.108Z,100060.16
2022-11-20T10:29:39.260Z,100057.56
2022-11-20T10:32:19.825Z,100056.50
2022-11-20T10:34:59.528Z,100047.72
2022-11-20T10:37:27.916Z,100049.63
2022-11-20T10:40:19.364Z,100050.56
2022-11-20T10:42:49.088Z,100046.91
2022-11-20T10:45:24.871Z,100045.75
2022-11-20T10:48:10.268Z,100043.75
2022-11-20T10:50:45.627Z,100045.50
2022-11-20T10:53:49.438Z,100036.19
2022-11-20T10:56:23.812Z,100037.28
2022-11-20T10:58:59.407Z,100035.63
2022-11-20T11:01:27.584Z,100040.53
2022-11-20T11:03:57.167Z,100030.25
2022-11-20T11:06:47.768Z,100044.06
2022-11-20T11:09:22.692Z,100046.72
2022-11-20T11:11:49.536Z,100040.69
2022-11-20T11:14:16.830Z,100042.69
2022-11-20T11:16:54.939Z,100039.41
2022-11-20T11:19:22.171Z,100029.94
2022-11-20T11:21:55.631Z,100025.72
2022-11-20T11:24:45.999Z,100026.84
2022-11-20T11:27:17.321Z,100015.06
2022-11-20T11:29:45.005Z,100015.50
2022-11-20T11:32:20.629Z,100022.84
2022-11-20T11:35:02.415Z,100023.88
2022-11-20T11:37:35.958Z,100021.56
2022-11-20T11:40:23.532Z,100016.34
2022-11-20T11:42:55.902Z,100013.84
2022-11-20T11:45:22.742Z,100015.44
2022-11-20T11:47:52.727Z,100004.75
2022-11-20T11:50:22.977Z,100019.38
2022-11-20T11:53:13.992Z,100019.28
2022-11-20T11:56:09.566Z,100018.38
2022-11-20T11:58:52.093Z,100013.16
2022-11-20T12:01:18.686Z,100016.75
2022-11-20T12:04:03.358Z,100005.19
2022-11-20T12:06:32.629Z,100001.88
2022-11-20T12:09:06.350Z,100005.75
2022-11-20T12:11:46.428Z,99998.53
2022-11-20T12:14:41.032Z,99999.00
2022-11-20T12:17:12.297Z,100009.03
2022-11-20T12:19:38.922Z,100000.25
2022-11-20T12:22:14.790Z,99991.38
2022-11-20T12:24:47.659Z,99990.72
2022-11-20T12:27:42.280Z,99992.69
2022-11-20T12:30:11.870Z,99991.78
2022-11-20T12:33:06.139Z,99991.91
2022-11-20T12:36:06.937Z,99986.56
2022-11-20T12:38:36.556Z,99986.91
2022-11-20T12:41:06.101Z,99979.88
2022-11-20T12:44:03.238Z,99979.13
2022-11-20T12:46:59.973Z,99982.50
2022-11-20T12:49:43.304Z,99982.06
2022-11-20T12:52:35.564Z,99990.50
2022-11-20T12:55:36.054Z,99983.44
2022-11-20T12:58:24.192Z,99977.16
2022-11-20T13:01:01.860Z,99977.94
2022-11-20T13:03:54.446Z,99976.13
2022-11-20T13:06:23.407Z,99973.63
2022-11-20T13:08:57.419Z,99974.66
2022-11-20T13:11:44.144Z,99963.56
2022-11-20T13:14:41.260Z,99967.19
2022-11-20T13:17:19.066Z,99968.22
2022-11-20T13:19:55.865Z,99964.72
2022-11-20T13:22:31.279Z,99955.00
2022-11-20T13:24:58.054Z,99971.41
2022-11-20T13:27:25.403Z,99964.38
2022-11-20T13:30:16.346Z,99961.91
2022-11-20T13:32:57.828Z,99964.22
2022-11-20T13:35:36.412Z,99969.94
2022-11-20T13:38:14.811Z,99958.28
2022-11-20T13:40:57.342Z,99959.69
2022-11-20T13:43:29.965Z,99970.50
2022-11-20T13:46:02.476Z,99958.00
2022-11-20T13:48:39.165Z,99964.66
2022-11-20T13:51:27.078Z,99956.59
2022-11-20T13:54:15.025Z,99955.44
2022-11-20T13:56:49.947Z,99957.88
2022-11-20T13:59:34.117Z,99964.59
2022-11-20T14:02:02.197Z,99958.31
2022-11-20T14:04:36.247Z,99943.44
2022-11-20T14:07:07.571Z,99949.53
2022-11-20T14:09:35.152Z,99950.41
2022-11-20T14:12:04.370Z,99951.22
2022-11-20T14:14:33.650Z,99944.28
2022-11-20T14:17:29.638Z,99948.59
2022-11-20T14:20:04.926Z,99940.00
2022-11-20T14:22:31.747Z,99944.31
2022-11-20T14:25:03.330Z,99939.09
2022-11-20T14:27:30.267Z,99943.44
2022-11-20T14:29:57.013Z,99934.78
2022-11-20T14:39:32.155Z,99946.66
2022-11-20T14:41:59.140Z,99948.41
2022-11-20T14:44:32.929Z,99946.66
2022-11-20T14:47:01.334Z,99944.97
2022-11-20T14:49:31.002Z,99943.25
2022-11-20T14:52:01.874Z,99944.91
2022-11-20T14:54:29.357Z,99934.56
2022-11-20T15:02:09.243Z,99915.34
2022-11-20T15:04:46.067Z,99915.34
2022-11-20T15:07:11.986Z,99912.75
2022-11-20T15:09:38.738Z,99905.75
2022-11-20T15:12:05.026Z,99910.09
2022-11-20T15:14:32.975Z,99903.16
2022-11-20T15:16:59.897Z,99900.63
2022-11-20T15:24:46.321Z,99898.03
2022-11-20T15:27:12.503Z,99902.44
2022-11-20T15:29:38.482Z,99894.56
2022-11-20T15:32:07.979Z,99889.25
2022-11-20T15:34:38.055Z,99895.31
2022-11-20T15:37:04.007Z,99890.91
2022-11-20T15:39:29.852Z,99884.78
2022-11-20T15:46:54.317Z,99875.06
2022-11-20T15:49:21.976Z,99875.91
2022-11-20T15:51:49.961Z,99877.50
2022-11-20T15:54:22.013Z,99874.63
2022-11-20T15:56:49.887Z,99869.09
2022-11-20T15:59:15.921Z,99878.44
2022-11-20T16:01:42.369Z,99874.75
2022-11-20T16:09:20.589Z,99877.56
2022-11-20T16:11:46.628Z,99866.34
2022-11-20T16:14:31.278Z,99873.31
2022-11-20T16:16:57.236Z,99872.56
2022-11-20T16:19:23.052Z,99863.78
2022-11-20T16:21:48.983Z,99863.69
2022-11-20T16:24:16.332Z,99861.00
2022-11-20T18:31:10.830Z,99780.31
2022-11-20T18:33:37.952Z,99779.41
2022-11-20T18:36:22.400Z,99781.22
2022-11-20T18:38:51.843Z,99776.09
2022-11-20T18:41:39.209Z,99776.22
2022-11-20T18:44:30.392Z,99775.38
2022-11-20T18:46:57.219Z,99762.38
2022-11-20T18:49:23.950Z,99763.25
2022-11-20T18:51:50.660Z,99761.59
2022-11-20T18:54:17.477Z,99745.13
2022-11-20T18:56:44.083Z,99750.34
2022-11-20T18:59:12.701Z,99747.75
2022-11-20T19:01:39.483Z,99739.06
2022-11-20T19:04:08.308Z,99729.44
2022-11-20T19:06:36.118Z,99737.22
2022-11-20T19:09:05.125Z,99733.00
2022-11-20T19:11:32.607Z,99729.69
2022-11-20T19:13:59.281Z,99728.88
2022-11-20T19:16:26.402Z,99716.81
2022-11-20T19:18:54.758Z,99712.53
2022-11-20T19:21:24.731Z,99719.59
2022-11-20T19:23:53.897Z,99716.03
2022-11-20T19:26:21.675Z,99712.53
2022-11-20T19:28:48.459Z,99703.84
2022-11-20T19:31:26.840Z,99702.13
2022-11-20T19:34:02.676Z,99711.81
2022-11-20T19:36:32.807Z,99709.31
2022-11-20T19:39:00.188Z,99698.94
2022-11-20T19:41:31.656Z,99706.88
2022-11-20T19:44:03.882Z,99701.78
2022-11-20T19:46:32.238Z,99701.06
2022-11-20T19:48:59.218Z,99689.06
2022-11-20T19:51:29.873Z,99691.00
2022-11-20T19:53:58.413Z,99686.75
2022-11-20T19:56:26.600Z,99685.97
2022-11-20T19:58:54.441Z,99682.63
2022-11-20T20:01:23.975Z,99685.34
2022-11-20T20:03:51.488Z,99679.38
2022-11-20T20:06:21.276Z,99678.66
2022-11-20T20:09:00.800Z,99669.13
2022-11-20T20:11:29.923Z,99678.66
2022-11-20T20:13:58.989Z,99675.31
2022-11-20T20:16:26.612Z,99678.91
2022-11-20T20:18:58.230Z,99661.59
2022-11-20T20:21:25.002Z,99660.75
2022-11-20T20:23:53.886Z,99655.56
2022-11-20T20:26:22.154Z,99660.06
2022-11-20T20:28:49.390Z,99654.06
2022-11-20T20:31:21.874Z,99657.69
2022-11-20T20:33:48.892Z,99648.25
2022-11-20T20:36:18.085Z,99649.13
2022-11-20T20:38:46.023Z,99641.34
2022-11-20T20:41:14.255Z,99635.28
2022-11-20T20:44:00.200Z,99638.78
2022-11-20T20:46:26.789Z,99631.00
2022-11-20T20:48:54.952Z,99638.00
2022-11-20T20:51:22.484Z,99634.56
2022-11-20T20:53:50.157Z,99634.56
2022-11-20T20:56:17.798Z,99636.44
2022-11-20T20:58:44.453Z,99634.75
2022-11-20T21:01:13.634Z,99632.19
2022-11-20T21:03:40.891Z,99628.69
2022-11-20T21:06:12.161Z,99630.44
2022-11-20T21:08:40.887Z,99623.41
2022-11-20T21:11:10.639Z,99620.78
2022-11-20T21:13:39.422Z,99616.44
2022-11-20T21:16:06.965Z,99608.66
2022-11-20T21:18:34.284Z,99605.25
2022-11-20T21:21:23.046Z,99596.63
2022-11-20T21:23:49.942Z,99584.47
2022-11-20T21:26:17.389Z,99574.88
2022-11-20T21:28:44.154Z,99574.78
2022-11-20T21:31:15.325Z,99576.44
2022-11-20T21:33:43.877Z,99565.09
2022-11-20T21:36:12.336Z,99571.13
2022-11-20T21:38:39.488Z,99559.78
2022-11-20T21:41:08.158Z,99549.31
2022-11-20T21:43:34.841Z,99541.38
2022-11-20T21:46:04.132Z,99536.94
2022-11-20T21:48:32.318Z,99535.97
2022-11-20T21:51:06.793Z,99538.59
2022-11-20T21:53:34.536Z,99538.50
2022-11-20T21:56:01.623Z,99539.22
2022-11-20T21:58:28.262Z,99533.03
2022-11-20T22:00:55.105Z,99528.63
2022-11-20T22:03:22.047Z,99517.22
2022-11-20T22:05:58.785Z,99518.00
2022-11-20T22:08:26.112Z,99500.56
2022-11-20T22:10:57.023Z,99504.84
2022-11-20T22:13:44.014Z,99502.28
2022-11-20T22:16:11.460Z,99503.16
2022-11-20T22:18:45.439Z,99493.63
2022-11-20T22:21:13.237Z,99491.13
2022-11-20T22:23:40.178Z,99486.84
2022-11-20T22:26:10.306Z,99490.41
2022-11-20T22:28:37.473Z,99490.41
2022-11-20T22:31:06.658Z,99487.78
2022-11-20T22:33:34.384Z,99489.50
2022-11-20T22:36:05.782Z,99495.53
2022-11-20T22:38:38.872Z,99486.84
2022-11-20T22:41:11.110Z,99489.47
2022-11-20T22:43:38.645Z,99488.63
2022-11-20T22:46:15.260Z,99490.41
2022-11-20T22:48:44.808Z,99486.00
2022-11-20T22:51:14.317Z,99489.47
2022-11-20T22:53:44.403Z,99487.69
2022-11-20T22:56:13.211Z,99477.22
2022-11-20T22:58:42.225Z,99485.94
2022-11-20T23:01:20.711Z,99480.72
2022-11-20T23:03:49.211Z,99472.03
2022-11-20T23:06:18.557Z,99473.81
2022-11-20T23:08:46.121Z,99466.06
2022-11-20T23:11:15.964Z,99472.22
2022-11-20T23:13:43.556Z,99465.34
2022-11-20T23:16:14.024Z,99469.72
2022-11-20T23:18:41.153Z,99467.19
2022-11-20T23:21:13.320Z,99468.94
2022-11-20T23:23:40.424Z,99472.53
2022-11-20T23:26:10.343Z,99471.69
2022-11-20T23:28:38.241Z,99467.44
2022-11-20T23:31:05.654Z,99470.16
2022-11-20T23:33:35.592Z,99464.13
2022-11-20T23:36:02.272Z,99474.63
2022-11-20T23:38:28.882Z,99466.81
2022-11-20T23:40:55.425Z,99473.84
2022-11-20T23:43:23.081Z,99464.31
2022-11-20T23:45:51.840Z,99460.06
2022-11-20T23:48:19.668Z,99460.13
2022-11-20T23:50:46.695Z,99465.41
2022-11-20T23:53:14.500Z,99460.22
2022-11-20T23:55:46.227Z,99461.16
2022-11-20T23:58:13.775Z,99463.75
